Time;durP1;ratioP1;P1;durP2;ratioP2;P2;SDS_P1;SDS_P2;PMS_P1;PMS_P2;Temp;Humidity;BMP_temperature;BMP_pressure;BME280_temperature;BME280_humidity;BME280_pressure;Samples;Min_cycle;Max_cycle;Signal;HPM_P1;HPM_P2
2023/01/23 00:00:26;;;;;;;3.63;3.43;;;;;;;;;;6282340;28;20322;-89
2023/01/23 00:03:33;;;;;;;4.07;3.87;;;;;;;;;;6274706;28;20314;-89
2023/01/23 00:06:39;;;;;;;4.13;3.73;;;;;;;;;;6265190;28;20607;-89
2023/01/23 00:09:45;;;;;;;3.73;3.53;;;;;;;;;;6275526;28;20593;-87
2023/01/23 00:12:53;;;;;;;3.77;3.57;;;;;;;;;;6280239;28;20300;-87
2023/01/23 00:15:58;;;;;;;4.10;3.90;;;;;;;;;;6278324;28;20303;-88
2023/01/23 00:19:04;;;;;;;3.70;3.50;;;;;;;;;;6277605;28;20295;-86
2023/01/23 00:22:14;;;;;;;3.90;3.70;;;;;;;;;;6280626;28;20292;-89
2023/01/23 00:25:19;;;;;;;3.87;3.67;;;;;;;;;;6280522;28;20310;-86
2023/01/23 00:28:26;;;;;;;3.87;3.57;;;;;;;;;;6277814;28;20283;-88
2023/01/23 00:31:33;;;;;;;3.50;3.40;;;;;;;;;;6264722;28;20275;-88
2023/01/23 00:34:42;;;;;;;4.00;3.80;;;;;;;;;;6277021;28;20313;-88
2023/01/23 00:37:48;;;;;;;4.63;3.97;;;;;;;;;;6281924;28;20296;-89
2023/01/23 00:40:55;;;;;;;3.30;3.20;;;;;;;;;;6241971;28;20294;-88
2023/01/23 00:44:02;;;;;;;3.40;3.20;;;;;;;;;;6282384;28;20299;-87
2023/01/23 00:47:08;;;;;;;4.17;3.67;;;;;;;;;;6270402;28;20295;-88
2023/01/23 00:50:14;;;;;;;3.70;3.50;;;;;;;;;;6269912;28;20294;-89
2023/01/23 00:53:19;;;;;;;5.13;3.60;;;;;;;;;;6266288;28;20577;-87
2023/01/23 00:56:25;;;;;;;3.80;3.60;;;;;;;;;;6282640;28;20307;-88
2023/01/23 00:59:32;;;;;;;3.47;3.27;;;;;;;;;;6278682;28;20298;-88
2023/01/23 01:02:38;;;;;;;3.40;3.30;;;;;;;;;;6259466;28;20486;-89
2023/01/23 01:05:43;;;;;;;3.10;3.00;;;;;;;;;;6259443;28;20306;-88
2023/01/23 01:08:49;;;;;;;3.40;3.30;;;;;;;;;;6267701;28;20298;-88
2023/01/23 01:11:55;;;;;;;3.37;3.17;;;;;;;;;;6270379;28;20387;-87
2023/01/23 01:15:02;;;;;;;3.40;3.20;;;;;;;;;;6268711;28;20315;-88
2023/01/23 01:18:11;;;;;;;3.20;3.10;;;;;;;;;;6269456;28;20308;-87
2023/01/23 01:21:18;;;;;;;3.00;2.90;;;;;;;;;;6276272;28;20298;-87
2023/01/23 01:24:25;;;;;;;3.23;3.13;;;;;;;;;;6254613;28;20465;-86
2023/01/23 01:27:31;;;;;;;3.23;3.13;;;;;;;;;;6262875;28;20299;-87
2023/01/23 01:30:38;;;;;;;3.63;2.83;;;;;;;;;;6277087;28;20304;-88
2023/01/23 01:33:45;;;;;;;3.07;2.97;;;;;;;;;;6262251;28;20301;-88
2023/01/23 01:36:50;;;;;;;3.40;3.20;;;;;;;;;;6247496;28;20593;-88
2023/01/23 01:39:58;;;;;;;2.97;2.87;;;;;;;;;;6275057;28;20306;-89
2023/01/23 01:43:06;;;;;;;2.70;2.70;;;;;;;;;;6276453;28;20299;-88
2023/01/23 01:46:22;;;;;;;3.00;2.90;;;;;;;;;;6270673;28;20310;-89
2023/01/23 01:49:31;;;;;;;2.83;2.73;;;;;;;;;;6276240;28;20309;-88
2023/01/23 01:52:39;;;;;;;3.17;3.07;;;;;;;;;;6255724;28;20294;-87
2023/01/23 01:55:48;;;;;;;3.67;3.47;;;;;;;;;;6275182;28;20490;-88
2023/01/23 01:58:54;;;;;;;3.10;3.00;;;;;;;;;;6256820;28;20303;-89
2023/01/23 02:02:05;;;;;;;2.80;2.70;;;;;;;;;;6285724;23;20370;-80
2023/01/23 02:05:12;;;;;;;2.87;2.67;;;;;;;;;;6236771;28;20301;-80
2023/01/23 02:08:20;;;;;;;2.73;2.63;;;;;;;;;;6249790;28;20372;-79
2023/01/23 02:11:26;;;;;;;2.60;2.60;;;;;;;;;;6233466;28;20303;-81
2023/01/23 02:14:31;;;;;;;3.00;2.90;;;;;;;;;;6231492;28;20309;-81
2023/01/23 02:17:38;;;;;;;3.07;2.97;;;;;;;;;;6249864;28;20299;-82
2023/01/23 02:20:43;;;;;;;3.03;2.93;;;;;;;;;;6250659;28;20299;-82
2023/01/23 02:24:05;;;;;;;3.10;3.00;;;;;;;;;;6231792;28;20300;-81
2023/01/23 02:27:13;;;;;;;2.90;2.80;;;;;;;;;;6249797;28;20308;-81
2023/01/23 02:30:19;;;;;;;3.30;3.20;;;;;;;;;;6248778;28;20491;-81
2023/01/23 02:33:51;;;;;;;2.70;2.70;;;;;;;;;;6247971;28;20599;-80
2023/01/23 02:36:56;;;;;;;3.20;3.10;;;;;;;;;;6245412;28;20446;-81
2023/01/23 02:40:02;;;;;;;3.60;3.40;;;;;;;;;;6249041;28;20311;-80
2023/01/23 02:43:14;;;;;;;3.20;3.10;;;;;;;;;;6249687;28;20291;-80
2023/01/23 02:46:26;;;;;;;3.23;3.13;;;;;;;;;;6247115;28;20452;-80
2023/01/23 02:49:32;;;;;;;3.63;3.53;;;;;;;;;;6248203;28;20298;-82
2023/01/23 02:52:40;;;;;;;3.87;3.67;;;;;;;;;;6231519;28;20300;-81
2023/01/23 02:55:45;;;;;;;3.20;3.10;;;;;;;;;;6245766;28;20293;-81
2023/01/23 03:02:16;;;;;;;4.13;3.93;;;;;;;;;;6247909;28;20314;-81
2023/01/23 03:05:21;;;;;;;4.20;4.00;;;;;;;;;;6238946;28;20290;-81
2023/01/23 03:08:32;;;;;;;4.00;3.80;;;;;;;;;;6230802;28;20303;-80
2023/01/23 03:11:39;;;;;;;4.10;3.80;;;;;;;;;;6235966;28;20552;-80
2023/01/23 03:14:47;;;;;;;4.30;4.10;;;;;;;;;;6248766;28;20496;-80
2023/01/23 03:17:52;;;;;;;4.20;4.00;;;;;;;;;;6256339;28;20303;-80
2023/01/23 03:21:02;;;;;;;3.73;3.63;;;;;;;;;;6250072;28;20295;-80
2023/01/23 03:24:08;;;;;;;3.63;3.53;;;;;;;;;;6231250;28;20303;-80
2023/01/23 03:27:14;;;;;;;3.50;3.40;;;;;;;;;;6245565;28;20486;-81
2023/01/23 03:30:24;;;;;;;3.90;3.70;;;;;;;;;;6243469;28;20308;-81
2023/01/23 03:33:29;;;;;;;3.77;3.63;;;;;;;;;;6234730;28;20299;-80
2023/01/23 03:36:36;;;;;;;3.90;3.80;;;;;;;;;;6251307;28;20348;-80
2023/01/23 03:43:05;;;;;;;4.10;4.00;;;;;;;;;;6250080;28;20303;-80
2023/01/23 03:46:13;;;;;;;4.70;4.40;;;;;;;;;;6232982;28;20296;-80
2023/01/23 03:49:20;;;;;;;3.97;3.77;;;;;;;;;;6247989;28;20306;-80
2023/01/23 03:52:33;;;;;;;3.57;3.37;;;;;;;;;;6231686;28;20281;-80
2023/01/23 03:55:38;;;;;;;3.80;3.70;;;;;;;;;;6249619;28;20303;-80
2023/01/23 03:58:44;;;;;;;3.53;3.43;;;;;;;;;;6230059;28;20296;-81
2023/01/23 04:01:51;;;;;;;3.83;3.57;;;;;;;;;;6245477;28;20287;-80
2023/01/23 04:04:57;;;;;;;3.67;3.47;;;;;;;;;;6236560;28;20298;-80
2023/01/23 04:08:03;;;;;;;3.43;3.30;;;;;;;;;;6230523;28;20303;-80
2023/01/23 04:11:10;;;;;;;4.03;3.83;;;;;;;;;;6238837;28;20294;-80
2023/01/23 04:14:16;;;;;;;4.03;3.73;;;;;;;;;;6231019;28;20298;-80
2023/01/23 04:17:23;;;;;;;3.60;3.50;;;;;;;;;;6238519;28;20315;-80
2023/01/23 04:20:28;;;;;;;3.67;3.50;;;;;;;;;;6247758;28;20296;-80
2023/01/23 04:23:35;;;;;;;4.10;3.90;;;;;;;;;;6230312;28;20286;-79
2023/01/23 04:26:40;;;;;;;3.30;3.20;;;;;;;;;;6246414;28;20295;-81
2023/01/23 04:29:46;;;;;;;3.70;3.50;;;;;;;;;;6230640;28;20315;-80
2023/01/23 04:32:53;;;;;;;3.63;3.33;;;;;;;;;;6251417;28;20307;-80
2023/01/23 04:36:00;;;;;;;3.67;3.40;;;;;;;;;;6251024;28;20455;-80
2023/01/23 04:39:07;;;;;;;3.57;3.47;;;;;;;;;;6246217;28;20312;-82
2023/01/23 04:42:14;;;;;;;3.67;3.53;;;;;;;;;;6229260;28;20295;-80
2023/01/23 04:45:28;;;;;;;3.33;3.23;;;;;;;;;;6230048;28;20476;-81
2023/01/23 04:49:01;;;;;;;3.57;3.47;;;;;;;;;;6239014;28;20599;-80
2023/01/23 04:52:06;;;;;;;3.53;3.43;;;;;;;;;;6241609;28;20295;-81
2023/01/23 04:55:15;;;;;;;3.93;3.73;;;;;;;;;;6230786;28;20306;-81
2023/01/23 04:58:21;;;;;;;3.70;3.60;;;;;;;;;;6233285;28;20298;-80
2023/01/23 05:01:26;;;;;;;4.33;4.07;;;;;;;;;;6239154;28;20279;-81
2023/01/23 05:04:37;;;;;;;4.00;3.70;;;;;;;;;;6230117;28;20301;-81
2023/01/23 05:07:43;;;;;;;3.80;3.43;;;;;;;;;;6238185;28;20288;-81
2023/01/23 05:10:51;;;;;;;3.87;3.73;;;;;;;;;;6234123;28;20313;-80
2023/01/23 05:13:57;;;;;;;3.67;3.47;;;;;;;;;;6240092;28;20297;-81
2023/01/23 05:17:03;;;;;;;4.27;3.97;;;;;;;;;;6234399;28;20301;-79
2023/01/23 05:20:23;;;;;;;3.83;3.63;;;;;;;;;;6231641;28;20301;-80
2023/01/23 05:23:35;;;;;;;3.77;3.57;;;;;;;;;;6235592;28;20300;-80
2023/01/23 05:26:41;;;;;;;4.23;3.80;;;;;;;;;;6233902;28;20303;-80
2023/01/23 05:29:46;;;;;;;4.57;4.20;;;;;;;;;;6233998;28;20295;-80
2023/01/23 05:32:57;;;;;;;4.00;3.80;;;;;;;;;;6241376;28;20299;-80
2023/01/23 05:36:04;;;;;;;4.30;4.00;;;;;;;;;;6234774;28;20292;-81
2023/01/23 05:39:12;;;;;;;4.47;4.17;;;;;;;;;;6233415;28;20316;-81
2023/01/23 05:42:17;;;;;;;4.07;3.97;;;;;;;;;;6233294;28;20299;-81
2023/01/23 05:45:40;;;;;;;4.53;4.20;;;;;;;;;;6225535;28;20303;-80
2023/01/23 05:48:53;;;;;;;4.60;4.20;;;;;;;;;;6241530;28;20304;-80
2023/01/23 05:51:59;;;;;;;5.00;4.53;;;;;;;;;;6242129;28;20588;-80
2023/01/23 05:55:06;;;;;;;5.03;4.67;;;;;;;;;;6225334;28;20372;-80
2023/01/23 05:58:13;;;;;;;4.13;3.83;;;;;;;;;;6232515;28;20302;-80
2023/01/23 06:01:38;;;;;;;4.80;4.50;;;;;;;;;;6224651;28;20291;-79
2023/01/23 06:05:07;;;;;;;4.27;3.97;;;;;;;;;;6214586;28;20304;-80
2023/01/23 06:08:34;;;;;;;4.53;4.23;;;;;;;;;;6201681;28;20305;-80
2023/01/23 06:11:40;;;;;;;5.83;4.20;;;;;;;;;;6198416;28;20294;-80
2023/01/23 06:14:47;;;;;;;4.77;4.37;;;;;;;;;;6217101;28;20297;-80
2023/01/23 06:17:53;;;;;;;4.40;4.10;;;;;;;;;;6201153;28;20308;-81
2023/01/23 06:20:59;;;;;;;4.63;4.33;;;;;;;;;;6199793;28;20577;-80
2023/01/23 06:24:07;;;;;;;4.50;4.20;;;;;;;;;;6204280;28;20304;-81
2023/01/23 06:27:12;;;;;;;4.70;4.40;;;;;;;;;;6223555;28;20293;-81
2023/01/23 06:30:18;;;;;;;4.73;4.27;;;;;;;;;;6195481;28;20574;-80
2023/01/23 06:33:26;;;;;;;3.80;3.60;;;;;;;;;;6221983;28;20460;-80
2023/01/23 06:36:34;;;;;;;4.63;4.33;;;;;;;;;;6201205;28;20459;-79
2023/01/23 06:39:42;;;;;;;4.50;4.10;;;;;;;;;;6200550;28;20309;-80
2023/01/23 06:42:50;;;;;;;4.37;4.10;;;;;;;;;;6207395;28;20296;-80
2023/01/23 06:45:56;;;;;;;5.30;4.80;;;;;;;;;;6199169;28;20296;-81
2023/01/23 06:49:02;;;;;;;5.43;4.93;;;;;;;;;;6198408;28;20296;-80
2023/01/23 06:52:13;;;;;;;5.33;4.83;;;;;;;;;;6200315;28;20395;-78
2023/01/23 06:55:23;;;;;;;5.33;4.83;;;;;;;;;;6204578;28;20434;-79
2023/01/23 06:58:28;;;;;;;7.93;5.23;;;;;;;;;;6200724;28;20299;-79
2023/01/23 07:01:33;;;;;;;6.27;5.67;;;;;;;;;;6198662;28;20280;-78
2023/01/23 07:05:01;;;;;;;5.03;4.53;;;;;;;;;;6214105;28;20302;-80
2023/01/23 07:08:07;;;;;;;4.57;4.17;;;;;;;;;;6206365;28;20292;-81
2023/01/23 07:11:14;;;;;;;4.70;4.40;;;;;;;;;;6196588;28;20594;-82
2023/01/23 07:14:20;;;;;;;4.83;4.47;;;;;;;;;;6197946;28;20304;-83
2023/01/23 07:17:28;;;;;;;4.90;4.63;;;;;;;;;;6200027;28;20286;-83
2023/01/23 07:20:40;;;;;;;5.43;4.90;;;;;;;;;;6202960;28;20307;-81
2023/01/23 07:23:45;;;;;;;5.43;5.03;;;;;;;;;;6198565;28;20297;-77
2023/01/23 07:26:51;;;;;;;5.57;5.13;;;;;;;;;;6200418;28;20289;-76
2023/01/23 07:29:57;;;;;;;6.63;5.60;;;;;;;;;;6203711;28;20302;-79
2023/01/23 07:33:02;;;;;;;6.13;5.53;;;;;;;;;;6202118;28;20304;-76
2023/01/23 07:36:08;;;;;;;11.40;5.97;;;;;;;;;;6208844;28;20363;-79
2023/01/23 07:39:14;;;;;;;7.70;6.17;;;;;;;;;;6195202;28;20315;-79
2023/01/23 07:42:21;;;;;;;10.93;5.97;;;;;;;;;;6202617;28;20295;-80
2023/01/23 07:45:29;;;;;;;8.43;6.57;;;;;;;;;;6197102;28;20301;-80
2023/01/23 07:48:34;;;;;;;9.20;6.10;;;;;;;;;;6198187;28;20296;-79
2023/01/23 07:51:39;;;;;;;7.67;5.67;;;;;;;;;;6199986;28;20300;-79
2023/01/23 07:54:44;;;;;;;6.80;5.70;;;;;;;;;;6199126;28;20301;-79
2023/01/23 07:57:50;;;;;;;8.03;6.33;;;;;;;;;;6193729;28;20616;-80
2023/01/23 08:00:55;;;;;;;6.60;5.73;;;;;;;;;;6202866;28;20292;-79
2023/01/23 08:04:00;;;;;;;8.27;6.17;;;;;;;;;;6235233;28;20319;-78
2023/01/23 08:07:06;;;;;;;8.00;6.40;;;;;;;;;;6233928;28;20409;-80
2023/01/23 08:10:12;;;;;;;6.40;5.80;;;;;;;;;;6238031;28;20589;-80
2023/01/23 08:13:19;;;;;;;5.50;5.00;;;;;;;;;;6241280;28;20481;-79
2023/01/23 08:16:26;;;;;;;5.17;4.70;;;;;;;;;;6248526;28;20299;-79
2023/01/23 08:19:32;;;;;;;4.77;4.40;;;;;;;;;;6248495;28;20314;-80
2023/01/23 08:22:39;;;;;;;5.07;4.67;;;;;;;;;;6247243;28;20298;-80
2023/01/23 08:25:45;;;;;;;5.23;4.73;;;;;;;;;;6248072;28;20306;-79
2023/01/23 08:28:51;;;;;;;5.23;4.77;;;;;;;;;;6245975;28;20303;-79
2023/01/23 08:31:57;;;;;;;4.80;4.27;;;;;;;;;;6239392;28;20288;-80
2023/01/23 08:35:03;;;;;;;4.73;4.33;;;;;;;;;;6249353;28;20303;-80
2023/01/23 08:38:09;;;;;;;4.77;4.33;;;;;;;;;;6251135;28;20298;-80
2023/01/23 08:41:15;;;;;;;4.83;4.30;;;;;;;;;;6247779;28;20232;-79
2023/01/23 08:44:22;;;;;;;4.20;3.90;;;;;;;;;;6249948;28;20295;-80
2023/01/23 08:47:27;;;;;;;5.00;4.00;;;;;;;;;;6250946;28;20325;-80
2023/01/23 08:50:32;;;;;;;5.17;4.77;;;;;;;;;;6250418;28;20371;-79
2023/01/23 08:53:38;;;;;;;6.47;4.70;;;;;;;;;;6249646;28;20585;-79
2023/01/23 08:56:43;;;;;;;4.83;4.10;;;;;;;;;;6246378;28;20294;-79
2023/01/23 08:59:49;;;;;;;4.37;4.07;;;;;;;;;;6242349;28;20290;-79
2023/01/23 09:02:56;;;;;;;4.80;4.37;;;;;;;;;;6251742;28;20295;-79
2023/01/23 09:06:02;;;;;;;4.83;4.43;;;;;;;;;;6251185;28;20301;-79
2023/01/23 09:09:07;;;;;;;4.70;4.40;;;;;;;;;;6252251;28;20593;-80
2023/01/23 09:12:14;;;;;;;4.40;4.00;;;;;;;;;;6252611;28;20317;-79
2023/01/23 09:15:22;;;;;;;4.37;4.00;;;;;;;;;;6264286;28;20298;-77
2023/01/23 09:18:27;;;;;;;4.37;4.07;;;;;;;;;;6247066;28;20299;-79
2023/01/23 09:21:32;;;;;;;4.93;4.47;;;;;;;;;;6247679;28;20303;-80
2023/01/23 09:24:37;;;;;;;4.60;4.20;;;;;;;;;;6252636;28;20486;-79
2023/01/23 09:27:42;;;;;;;8.07;4.43;;;;;;;;;;6252366;28;20323;-79
2023/01/23 09:30:49;;;;;;;5.13;4.03;;;;;;;;;;6248482;28;20453;-79
2023/01/23 09:33:54;;;;;;;4.50;4.10;;;;;;;;;;6231913;28;20306;-80
2023/01/23 09:37:00;;;;;;;4.53;4.23;;;;;;;;;;6249824;28;20299;-81
2023/01/23 09:40:07;;;;;;;4.63;4.23;;;;;;;;;;6251453;28;20301;-79
2023/01/23 09:43:16;;;;;;;4.00;3.80;;;;;;;;;;6249188;28;20299;-79
2023/01/23 09:46:26;;;;;;;3.73;3.53;;;;;;;;;;6232196;28;20484;-79
2023/01/23 09:49:36;;;;;;;7.00;3.90;;;;;;;;;;6247506;28;20306;-79
2023/01/23 09:52:45;;;;;;;4.60;3.90;;;;;;;;;;6251940;28;20306;-79
2023/01/23 09:55:53;;;;;;;4.10;3.70;;;;;;;;;;6240742;28;20462;-79
2023/01/23 09:59:12;;;;;;;3.63;3.33;;;;;;;;;;6248637;28;20295;-79
2023/01/23 10:02:21;;;;;;;4.40;3.87;;;;;;;;;;6248856;28;20300;-79
2023/01/23 10:05:33;;;;;;;4.03;3.70;;;;;;;;;;6248757;28;20282;-80
2023/01/23 10:08:44;;;;;;;3.67;3.43;;;;;;;;;;6248421;28;20303;-80
2023/01/23 10:11:56;;;;;;;3.90;3.60;;;;;;;;;;6252444;28;20315;-80
2023/01/23 10:15:20;;;;;;;3.70;3.50;;;;;;;;;;6241718;28;20306;-79
2023/01/23 10:18:30;;;;;;;4.10;3.80;;;;;;;;;;6249374;28;20320;-79
2023/01/23 10:21:41;;;;;;;4.57;4.13;;;;;;;;;;6254458;28;20299;-79
2023/01/23 10:24:50;;;;;;;3.70;3.50;;;;;;;;;;6234593;28;20303;-80
2023/01/23 10:27:58;;;;;;;4.03;3.73;;;;;;;;;;6247443;28;20304;-79
2023/01/23 10:31:07;;;;;;;4.17;3.87;;;;;;;;;;6232394;28;20290;-79
2023/01/23 10:34:20;;;;;;;6.73;3.90;;;;;;;;;;6248397;28;20298;-80
2023/01/23 10:37:36;;;;;;;5.63;4.07;;;;;;;;;;6249053;28;20294;-80
2023/01/23 10:44:15;;;;;;;5.63;4.20;;;;;;;;;;6250848;28;22081;-79
2023/01/23 10:47:24;;;;;;;4.80;3.67;;;;;;;;;;6249476;28;20520;-79
2023/01/23 10:50:39;;;;;;;5.93;4.30;;;;;;;;;;6248963;28;20587;-80
2023/01/23 10:53:44;;;;;;;4.23;3.80;;;;;;;;;;6260063;28;20458;-81
2023/01/23 10:56:57;;;;;;;6.00;3.83;;;;;;;;;;6246452;28;20304;-80
2023/01/23 11:00:06;;;;;;;5.70;4.40;;;;;;;;;;6237326;28;20303;-80
2023/01/23 11:03:31;;;;;;;4.40;4.10;;;;;;;;;;6236064;28;20301;-81
2023/01/23 11:06:38;;;;;;;4.40;4.10;;;;;;;;;;6240485;28;20300;-81
2023/01/23 11:09:47;;;;;;;4.30;3.80;;;;;;;;;;6238374;28;20299;-79
2023/01/23 11:12:54;;;;;;;6.43;4.00;;;;;;;;;;6264188;28;20299;-80
2023/01/23 11:16:02;;;;;;;4.00;3.70;;;;;;;;;;6230849;28;20291;-80
2023/01/23 11:19:16;;;;;;;4.07;3.77;;;;;;;;;;6260899;28;20298;-82
2023/01/23 11:22:31;;;;;;;5.63;4.50;;;;;;;;;;6261348;28;20301;-80
2023/01/23 11:25:38;;;;;;;4.17;3.87;;;;;;;;;;6243152;28;20298;-79
2023/01/23 11:28:48;;;;;;;3.97;3.63;;;;;;;;;;6260979;28;20290;-79
2023/01/23 11:31:59;;;;;;;4.53;4.13;;;;;;;;;;6259866;28;20286;-80
2023/01/23 11:35:12;;;;;;;5.33;3.50;;;;;;;;;;6260995;28;20296;-80
2023/01/23 11:38:23;;;;;;;4.00;3.67;;;;;;;;;;6259134;28;20294;-78
2023/01/23 11:41:36;;;;;;;4.97;4.57;;;;;;;;;;6243565;28;20306;-80
2023/01/23 11:44:42;;;;;;;5.03;4.40;;;;;;;;;;6260068;28;20487;-80
2023/01/23 11:48:00;;;;;;;4.87;4.47;;;;;;;;;;6242627;28;20310;-80
2023/01/23 11:51:11;;;;;;;4.43;4.03;;;;;;;;;;6260673;28;20295;-80
2023/01/23 11:54:42;;;;;;;4.40;4.00;;;;;;;;;;6259822;28;20607;-78
2023/01/23 11:57:56;;;;;;;4.20;3.90;;;;;;;;;;6242099;28;20303;-79
2023/01/23 12:01:08;;;;;;;3.93;3.73;;;;;;;;;;6260674;28;20286;-80
2023/01/23 12:04:49;;;;;;;3.93;3.63;;;;;;;;;;6258555;28;20296;-81
2023/01/23 12:08:07;;;;;;;5.40;4.03;;;;;;;;;;6256595;28;20270;-79
2023/01/23 12:11:16;;;;;;;4.27;3.80;;;;;;;;;;6234457;28;20292;-81
2023/01/23 12:14:27;;;;;;;4.57;4.23;;;;;;;;;;6235236;28;20292;-79
2023/01/23 12:17:39;;;;;;;9.27;4.10;;;;;;;;;;6235783;28;20295;-80
2023/01/23 12:20:51;;;;;;;3.67;3.47;;;;;;;;;;6235132;28;20304;-79
2023/01/23 12:24:09;;;;;;;3.57;3.47;;;;;;;;;;6217869;28;20307;-79
2023/01/23 12:27:20;;;;;;;4.33;4.03;;;;;;;;;;6235852;28;20287;-79
2023/01/23 12:31:01;;;;;;;4.30;4.10;;;;;;;;;;6233835;28;20298;-80
2023/01/23 12:34:45;;;;;;;4.67;4.10;;;;;;;;;;6164837;28;20638;-80
2023/01/23 12:38:16;;;;;;;4.47;4.07;;;;;;;;;;6233743;28;20283;-80
2023/01/23 12:41:29;;;;;;;4.30;4.00;;;;;;;;;;6235549;28;20300;-81
2023/01/23 12:44:38;;;;;;;3.90;3.70;;;;;;;;;;6234645;28;20323;-81
2023/01/23 12:47:48;;;;;;;4.40;4.00;;;;;;;;;;6235104;28;20300;-81
2023/01/23 12:50:57;;;;;;;4.17;3.87;;;;;;;;;;6216783;28;20291;-80
2023/01/23 12:54:07;;;;;;;4.43;4.03;;;;;;;;;;6234659;28;20587;-80
2023/01/23 12:57:13;;;;;;;3.07;2.97;;;;;;;;;;6235351;28;20296;-80
2023/01/23 13:00:31;;;;;;;4.70;3.80;;;;;;;;;;6234996;28;20303;-80
2023/01/23 13:04:02;;;;;;;4.17;3.87;;;;;;;;;;6234516;28;20411;-81
2023/01/23 13:07:17;;;;;;;4.10;3.70;;;;;;;;;;6235867;28;20296;-81
2023/01/23 13:11:39;;;;;;;5.13;3.00;;;;;;;;;;6241389;28;20291;-79
2023/01/23 13:13:55;;;;;;;3.93;3.63;;;;;;;;;;6258295;28;20307;-79
2023/01/23 13:17:02;;;;;;;3.93;3.63;;;;;;;;;;6262386;28;20275;-80
2023/01/23 13:23:45;;;;;;;3.60;3.30;;;;;;;;;;6250611;28;20391;-78
2023/01/23 13:26:51;;;;;;;3.40;3.10;;;;;;;;;;6279703;28;20251;-78
2023/01/23 13:29:57;;;;;;;3.20;3.10;;;;;;;;;;6280206;28;20274;-80
2023/01/23 13:33:54;;;;;;;3.43;3.20;;;;;;;;;;6279455;28;20276;-79
2023/01/23 13:37:49;;;;;;;3.50;3.30;;;;;;;;;;6262993;28;20293;-79
2023/01/23 13:41:28;;;;;;;6.37;3.23;;;;;;;;;;6275981;28;20255;-80
2023/01/23 13:44:37;;;;;;;3.27;3.07;;;;;;;;;;6263897;28;20292;-80
2023/01/23 13:51:29;;;;;;;3.17;2.97;;;;;;;;;;6164470;28;20302;-80
2023/01/23 13:58:27;;;;;;;3.77;3.20;;;;;;;;;;6068984;29;20299;-78
2023/01/23 14:05:30;;;;;;;4.87;2.93;;;;;;;;;;5888424;30;20314;-79
2023/01/23 14:08:52;;;;;;;3.13;2.93;;;;;;;;;;5845262;30;20504;-79
2023/01/23 14:12:13;;;;;;;3.87;3.67;;;;;;;;;;5805123;30;20303;-80
2023/01/23 14:19:23;;;;;;;3.70;3.50;;;;;;;;;;5882837;30;20308;-79
2023/01/23 14:22:44;;;;;;;3.63;3.43;;;;;;;;;;5867212;30;20309;-80
2023/01/23 14:26:06;;;;;;;3.50;3.30;;;;;;;;;;5865777;30;20317;-79
2023/01/23 14:29:21;;;;;;;5.70;3.90;;;;;;;;;;5901902;29;20508;-79
2023/01/23 14:32:28;;;;;;;3.90;3.60;;;;;;;;;;5955213;29;20311;-79
2023/01/23 14:35:34;;;;;;;3.80;3.53;;;;;;;;;;5965813;29;20305;-78
2023/01/23 14:38:39;;;;;;;3.57;3.37;;;;;;;;;;6039455;29;20486;-79
2023/01/23 14:41:46;;;;;;;4.00;3.70;;;;;;;;;;6131267;29;20298;-79
2023/01/23 14:44:55;;;;;;;3.83;3.53;;;;;;;;;;6162262;28;20300;-79
2023/01/23 14:48:00;;;;;;;7.43;3.40;;;;;;;;;;6211338;28;20301;-79
2023/01/23 14:51:18;;;;;;;3.97;3.57;;;;;;;;;;6247855;28;20292;-78
2023/01/23 14:54:26;;;;;;;4.10;3.80;;;;;;;;;;6252198;28;20246;-81
2023/01/23 14:57:39;;;;;;;4.27;3.93;;;;;;;;;;6251308;28;20254;-80
2023/01/23 15:00:46;;;;;;;4.50;3.90;;;;;;;;;;6237494;28;20307;-81
2023/01/23 15:04:01;;;;;;;4.17;3.87;;;;;;;;;;6219433;28;20295;-79
2023/01/23 15:07:06;;;;;;;4.10;3.70;;;;;;;;;;6236844;28;20299;-81
2023/01/23 15:10:15;;;;;;;3.97;3.57;;;;;;;;;;6243740;28;20307;-78
2023/01/23 15:13:24;;;;;;;4.87;4.40;;;;;;;;;;6260911;28;20298;-79
2023/01/23 15:16:33;;;;;;;4.47;4.00;;;;;;;;;;6260788;28;20314;-79
2023/01/23 15:19:39;;;;;;;4.63;4.33;;;;;;;;;;6260759;28;20306;-79
2023/01/23 15:22:45;;;;;;;4.17;3.87;;;;;;;;;;6259856;28;20299;-79
2023/01/23 15:25:50;;;;;;;4.43;4.00;;;;;;;;;;6259541;28;20290;-79
2023/01/23 15:29:20;;;;;;;7.80;3.90;;;;;;;;;;6260656;28;20294;-80
2023/01/23 15:32:27;;;;;;;4.30;3.90;;;;;;;;;;6260674;28;20428;-79
2023/01/23 15:35:33;;;;;;;4.40;3.93;;;;;;;;;;6260894;28;20291;-80
2023/01/23 15:38:38;;;;;;;4.17;3.90;;;;;;;;;;6260151;28;20295;-84
2023/01/23 15:41:47;;;;;;;4.97;4.47;;;;;;;;;;6227905;28;20299;-84
2023/01/23 15:44:54;;;;;;;3.53;3.40;;;;;;;;;;6260491;28;20598;-79
2023/01/23 15:47:59;;;;;;;4.63;4.33;;;;;;;;;;6259778;28;20314;-79
2023/01/23 15:51:05;;;;;;;4.83;4.17;;;;;;;;;;6260483;28;20322;-78
2023/01/23 15:54:18;;;;;;;3.93;3.60;;;;;;;;;;6242675;28;20294;-80
2023/01/23 15:57:23;;;;;;;4.53;4.23;;;;;;;;;;6260442;28;20314;-80
2023/01/23 16:00:31;;;;;;;4.93;4.53;;;;;;;;;;6259790;28;20298;-80
2023/01/23 16:03:36;;;;;;;4.60;4.13;;;;;;;;;;6250281;28;20289;-81
2023/01/23 16:06:42;;;;;;;5.10;4.70;;;;;;;;;;6236410;28;20323;-80
2023/01/23 16:09:49;;;;;;;4.67;4.27;;;;;;;;;;6232233;28;20295;-80
2023/01/23 16:12:56;;;;;;;4.93;4.40;;;;;;;;;;6211291;28;20298;-80
2023/01/23 16:16:02;;;;;;;4.43;4.13;;;;;;;;;;6212038;28;20300;-81
2023/01/23 16:19:08;;;;;;;4.67;4.30;;;;;;;;;;6211534;28;20581;-80
2023/01/23 16:22:16;;;;;;;4.60;4.23;;;;;;;;;;6211492;28;20302;-82
2023/01/23 16:25:25;;;;;;;6.97;4.37;;;;;;;;;;6210818;28;20300;-83
2023/01/23 16:28:46;;;;;;;3.77;3.50;;;;;;;;;;6225073;28;20368;-81
2023/01/23 16:31:57;;;;;;;9.57;4.17;;;;;;;;;;6210893;28;20275;-78
2023/01/23 16:35:03;;;;;;;4.20;4.00;;;;;;;;;;6192183;28;20319;-79
2023/01/23 16:38:18;;;;;;;4.40;4.10;;;;;;;;;;6186100;28;20423;-81
2023/01/23 16:41:23;;;;;;;4.67;4.27;;;;;;;;;;6186863;28;20467;-80
2023/01/23 16:44:29;;;;;;;7.77;4.13;;;;;;;;;;6184928;28;20305;-80
2023/01/23 16:47:36;;;;;;;4.03;3.83;;;;;;;;;;6186547;28;20305;-79
2023/01/23 16:50:42;;;;;;;5.73;3.90;;;;;;;;;;6186895;28;20581;-80
2023/01/23 16:53:52;;;;;;;3.90;3.63;;;;;;;;;;6189569;28;20418;-79
2023/01/23 16:56:58;;;;;;;5.87;3.93;;;;;;;;;;6191136;28;20297;-80
2023/01/23 17:00:04;;;;;;;4.53;4.10;;;;;;;;;;6195489;28;20299;-80
2023/01/23 17:03:21;;;;;;;4.63;4.33;;;;;;;;;;6219758;28;20291;-78
2023/01/23 17:06:27;;;;;;;4.43;4.13;;;;;;;;;;6239537;28;20302;-81
2023/01/23 17:09:33;;;;;;;5.13;4.63;;;;;;;;;;6239535;28;20471;-80
2023/01/23 17:12:38;;;;;;;4.93;4.53;;;;;;;;;;6246808;28;20295;-79
2023/01/23 17:15:44;;;;;;;6.80;4.47;;;;;;;;;;6239086;28;20300;-80
2023/01/23 17:18:51;;;;;;;7.37;5.00;;;;;;;;;;6238795;28;20302;-79
2023/01/23 17:21:57;;;;;;;4.37;4.07;;;;;;;;;;6239220;28;20305;-79
2023/01/23 17:25:02;;;;;;;4.80;4.50;;;;;;;;;;6239008;28;20307;-79
2023/01/23 17:28:09;;;;;;;5.10;4.70;;;;;;;;;;6221484;28;20300;-79
2023/01/23 17:31:20;;;;;;;4.77;4.37;;;;;;;;;;6221780;28;20296;-79
2023/01/23 17:34:29;;;;;;;4.57;4.27;;;;;;;;;;6238841;28;20592;-80
2023/01/23 17:37:42;;;;;;;5.23;4.73;;;;;;;;;;6238920;28;20303;-80
2023/01/23 17:40:47;;;;;;;5.23;4.67;;;;;;;;;;6237920;28;20278;-81
2023/01/23 17:43:52;;;;;;;4.90;4.53;;;;;;;;;;6238724;28;20340;-81
2023/01/23 17:46:57;;;;;;;5.10;4.70;;;;;;;;;;6238442;28;20386;-81
2023/01/23 17:50:04;;;;;;;5.67;5.10;;;;;;;;;;6238826;28;20307;-82
2023/01/23 17:53:12;;;;;;;4.77;4.47;;;;;;;;;;6238365;28;20303;-81
2023/01/23 17:56:18;;;;;;;5.20;4.80;;;;;;;;;;6220220;28;20300;-78
2023/01/23 17:59:23;;;;;;;5.90;5.40;;;;;;;;;;6220892;28;20298;-80
2023/01/23 18:02:29;;;;;;;5.10;4.67;;;;;;;;;;6238578;28;20290;-80
2023/01/23 18:05:35;;;;;;;5.17;4.63;;;;;;;;;;6238730;28;20308;-81
2023/01/23 18:08:43;;;;;;;5.43;4.97;;;;;;;;;;6237594;28;20296;-80
2023/01/23 18:11:51;;;;;;;5.03;4.60;;;;;;;;;;6257186;28;20294;-80
2023/01/23 18:15:01;;;;;;;4.73;4.43;;;;;;;;;;6262590;28;20295;-80
2023/01/23 18:18:21;;;;;;;7.00;4.47;;;;;;;;;;6262308;28;20559;-80
2023/01/23 18:21:31;;;;;;;4.90;4.00;;;;;;;;;;6262339;28;20303;-78
2023/01/23 18:24:37;;;;;;;4.73;4.43;;;;;;;;;;6262159;28;20479;-79
2023/01/23 18:27:42;;;;;;;5.80;5.20;;;;;;;;;;6262876;28;20298;-78
2023/01/23 18:30:56;;;;;;;5.97;5.37;;;;;;;;;;6261541;28;20287;-79
2023/01/23 18:34:08;;;;;;;5.67;5.20;;;;;;;;;;6262288;28;20324;-79
2023/01/23 18:37:22;;;;;;;5.60;5.00;;;;;;;;;;6262655;28;20338;-77
2023/01/23 18:40:31;;;;;;;5.67;5.17;;;;;;;;;;6261944;28;20291;-79
2023/01/23 18:43:38;;;;;;;5.67;5.17;;;;;;;;;;6260814;28;20307;-80
2023/01/23 18:46:44;;;;;;;5.73;5.13;;;;;;;;;;6262422;28;20299;-81
2023/01/23 18:49:49;;;;;;;5.60;4.87;;;;;;;;;;6260736;28;20300;-79
2023/01/23 18:53:10;;;;;;;5.90;5.20;;;;;;;;;;6261333;28;20270;-81
2023/01/23 18:56:23;;;;;;;6.67;5.07;;;;;;;;;;6261824;28;20299;-82
2023/01/23 18:59:33;;;;;;;5.77;5.27;;;;;;;;;;6260653;28;20297;-76
2023/01/23 19:02:45;;;;;;;5.53;4.97;;;;;;;;;;6260551;28;20302;-75
2023/01/23 19:05:50;;;;;;;8.60;5.13;;;;;;;;;;6261156;28;20445;-83
2023/01/23 19:08:57;;;;;;;6.00;4.73;;;;;;;;;;6262977;28;20288;-85
2023/01/23 19:12:06;;;;;;;5.23;4.73;;;;;;;;;;6263113;28;20299;-81
2023/01/23 19:15:28;;;;;;;6.60;5.27;;;;;;;;;;6261155;28;20307;-80
2023/01/23 19:18:45;;;;;;;7.03;5.10;;;;;;;;;;6261170;28;20587;-78
2023/01/23 19:21:52;;;;;;;4.93;4.63;;;;;;;;;;6260959;28;20598;-79
2023/01/23 19:24:59;;;;;;;5.30;4.80;;;;;;;;;;6243235;28;20517;-78